createdAt,value
2022-12-24T00:00:48.394Z,97933.26
2022-12-24T00:03:54.704Z,97932.25
2022-12-24T00:07:01.021Z,97934.60
2022-12-24T00:10:05.952Z,97935.64
2022-12-24T00:13:12.144Z,97935.30
2022-12-24T00:16:18.507Z,97939.70
2022-12-24T00:19:23.200Z,97942.70
2022-12-24T00:22:29.443Z,97941.60
2022-12-24T00:25:35.631Z,97940.23
2022-12-24T00:28:41.882Z,97942.28
2022-12-24T00:31:46.544Z,97949.09
2022-12-24T00:34:52.773Z,97949.55
2022-12-24T00:37:59.256Z,97949.48
2022-12-24T00:41:24.753Z,97945.96
2022-12-24T00:44:31.519Z,97944.79
2022-12-24T00:47:38.232Z,97941.66
2022-12-24T00:50:44.533Z,97939.36
2022-12-24T00:53:49.349Z,97939.17
2022-12-24T00:56:55.622Z,97936.67
2022-12-24T01:00:00.184Z,97934.30
2022-12-24T01:03:06.556Z,97930.43
2022-12-24T01:06:15.821Z,97926.83
2022-12-24T01:09:22.129Z,97927.06
2022-12-24T01:12:26.755Z,97927.36
2022-12-24T01:15:33.092Z,97923.81
2022-12-24T01:18:37.742Z,97919.44
2022-12-24T01:21:44.012Z,97913.42
2022-12-24T01:24:48.775Z,97899.57
2022-12-24T01:27:55.061Z,97891.70
2022-12-24T01:30:59.779Z,97885.64
2022-12-24T01:34:06.121Z,97882.08
2022-12-24T01:37:12.443Z,97878.66
2022-12-24T01:40:40.959Z,97874.80
2022-12-24T01:43:47.336Z,97866.17
2022-12-24T01:46:53.454Z,97865.71
2022-12-24T01:50:13.676Z,97860.70
2022-12-24T01:53:20.574Z,97857.47
2022-12-24T01:56:28.253Z,97860.88
2022-12-24T01:59:36.759Z,97864.38
2022-12-24T02:02:45.945Z,97863.71
2022-12-24T02:05:55.860Z,97864.38
2022-12-24T02:09:02.189Z,97862.77
2022-12-24T02:12:07.714Z,97862.10
2022-12-24T02:15:17.334Z,97871.34
2022-12-24T02:18:33.628Z,97872.29
2022-12-24T02:21:51.284Z,97873.27
2022-12-24T02:25:20.369Z,97872.54
2022-12-24T02:28:47.056Z,97870.22
2022-12-24T02:31:57.249Z,97862.88
2022-12-24T02:35:11.606Z,97851.73
2022-12-24T02:38:25.841Z,97846.88
2022-12-24T02:41:50.310Z,97837.52
2022-12-24T02:45:03.112Z,97832.19
2022-12-24T02:48:10.573Z,97829.80
2022-12-24T02:51:17.261Z,97835.03
2022-12-24T02:54:24.040Z,97840.13
2022-12-24T02:57:42.598Z,97839.72
2022-12-24T03:01:16.421Z,97839.48
2022-12-24T03:04:40.622Z,97839.54
2022-12-24T03:07:55.200Z,97841.45
2022-12-24T03:11:09.671Z,97846.17
2022-12-24T03:14:17.630Z,97841.27
2022-12-24T03:17:24.606Z,97836.19
2022-12-24T03:20:37.218Z,97834.87
2022-12-24T03:23:43.888Z,97845.27
2022-12-24T03:26:50.958Z,97843.65
2022-12-24T03:29:58.442Z,97844.69
2022-12-24T03:33:04.779Z,97846.66
2022-12-24T03:36:10.317Z,97850.64
2022-12-24T03:39:16.776Z,97854.61
2022-12-24T03:42:23.023Z,97855.66
2022-12-24T03:45:29.281Z,97858.02
2022-12-24T03:48:34.377Z,97856.81
2022-12-24T03:51:40.622Z,97856.35
2022-12-24T03:54:45.107Z,97852.04
2022-12-24T03:57:51.868Z,97848.23
2022-12-24T04:00:58.245Z,97840.18
2022-12-24T04:04:02.755Z,97837.36
2022-12-24T04:07:09.508Z,97840.58
2022-12-24T04:10:17.054Z,97840.65
2022-12-24T04:13:23.436Z,97841.48
2022-12-24T04:16:28.084Z,97835.89
2022-12-24T04:19:34.350Z,97835.33
2022-12-24T04:22:38.895Z,97838.65
2022-12-24T04:25:45.049Z,97840.11
2022-12-24T04:28:51.240Z,97836.36
2022-12-24T04:31:57.558Z,97831.52
2022-12-24T04:35:02.238Z,97828.46
2022-12-24T04:38:08.821Z,97836.76
2022-12-24T04:41:23.124Z,97837.13
2022-12-24T04:44:30.508Z,97827.79
2022-12-24T04:47:35.011Z,97832.15
2022-12-24T04:50:41.321Z,97831.43
2022-12-24T04:53:46.348Z,97832.52
2022-12-24T04:56:52.847Z,97836.35
2022-12-24T04:59:59.107Z,97835.88
2022-12-24T05:03:03.575Z,97839.38
2022-12-24T05:06:13.651Z,97841.80
2022-12-24T05:09:19.863Z,97840.76
2022-12-24T05:12:26.182Z,97843.75
2022-12-24T05:15:30.680Z,97852.59
2022-12-24T05:18:36.995Z,97850.52
2022-12-24T05:21:41.825Z,97855.23
2022-12-24T05:25:05.273Z,97858.02
2022-12-24T05:28:11.592Z,97861.67
2022-12-24T05:31:16.321Z,97861.34
2022-12-24T05:34:22.596Z,97859.67
2022-12-24T05:37:28.881Z,97860.27
2022-12-24T05:40:33.427Z,97865.42
2022-12-24T05:43:39.827Z,97863.77
2022-12-24T05:46:46.335Z,97866.89
2022-12-24T05:49:52.703Z,97866.14
2022-12-24T05:52:59.678Z,97868.44
2022-12-24T05:56:11.373Z,97869.12
2022-12-24T05:59:17.687Z,97874.52
2022-12-24T06:02:22.369Z,97877.55
2022-12-24T06:05:28.688Z,97882.31
2022-12-24T06:08:35.914Z,97887.23
2022-12-24T06:11:42.275Z,97888.05
2022-12-24T06:14:46.769Z,97885.96
2022-12-24T06:17:52.933Z,97886.73
2022-12-24T06:21:00.375Z,97902.44
2022-12-24T06:24:07.616Z,97901.02
2022-12-24T06:27:13.853Z,97904.72
2022-12-24T06:30:20.343Z,97907.20
2022-12-24T06:33:26.724Z,97910.13
2022-12-24T06:36:32.999Z,97909.40
2022-12-24T06:39:37.486Z,97913.52
2022-12-24T06:42:43.800Z,97917.34
2022-12-24T06:45:48.894Z,97921.10
2022-12-24T06:48:56.105Z,97922.84
2022-12-24T06:52:02.304Z,97921.61
2022-12-24T06:55:10.476Z,97927.08
2022-12-24T06:58:16.953Z,97927.16
2022-12-24T07:01:24.415Z,97922.28
2022-12-24T07:04:31.260Z,97927.16
2022-12-24T07:07:38.484Z,97932.27
2022-12-24T07:10:50.543Z,97929.13
2022-12-24T07:14:00.134Z,97935.81
2022-12-24T07:17:06.852Z,97937.98
2022-12-24T07:20:15.885Z,97941.42
2022-12-24T07:23:22.234Z,97947.59
2022-12-24T07:26:26.729Z,97952.39
2022-12-24T07:29:33.246Z,97956.27
2022-12-24T07:32:39.463Z,97955.15
2022-12-24T07:35:48.515Z,97956.39
2022-12-24T07:38:58.550Z,97959.02
2022-12-24T07:42:08.177Z,97969.58
2022-12-24T07:45:14.888Z,97972.50
2022-12-24T07:48:21.192Z,97974.88
2022-12-24T07:51:25.718Z,97985.77
2022-12-24T07:54:31.959Z,97986.38
2022-12-24T07:57:38.210Z,97984.02
2022-12-24T08:00:42.719Z,97989.04
2022-12-24T08:03:51.545Z,97990.99
2022-12-24T08:06:57.941Z,97986.56
2022-12-24T08:10:04.323Z,97989.20
2022-12-24T08:13:11.084Z,97990.09
2022-12-24T08:16:17.432Z,97991.14
2022-12-24T08:19:21.967Z,97996.00
2022-12-24T08:22:28.247Z,97994.56
2022-12-24T08:25:32.797Z,98000.40
2022-12-24T08:28:39.344Z,98005.42
2022-12-24T08:31:45.675Z,98003.31
2022-12-24T08:34:50.272Z,98007.73
2022-12-24T08:37:56.488Z,98015.05
2022-12-24T08:41:02.591Z,98023.05
2022-12-24T08:44:09.013Z,98025.89
2022-12-24T08:47:15.283Z,98026.70
2022-12-24T08:50:21.890Z,98027.73
2022-12-24T08:53:28.161Z,98031.95
2022-12-24T08:56:34.525Z,98034.06
2022-12-24T08:59:40.748Z,98042.36
2022-12-24T09:02:47.176Z,98046.89
2022-12-24T09:05:54.205Z,98048.63
2022-12-24T09:09:00.494Z,98049.41
2022-12-24T09:12:05.155Z,98049.20
2022-12-24T09:15:14.325Z,98054.02
2022-12-24T09:18:20.667Z,98054.72
2022-12-24T09:21:25.121Z,98055.77
2022-12-24T09:24:31.261Z,98056.84
2022-12-24T09:27:37.579Z,98043.52
2022-12-24T09:30:42.115Z,98042.11
2022-12-24T09:33:50.850Z,98046.15
2022-12-24T09:36:57.111Z,98044.40
2022-12-24T09:40:01.641Z,98044.25
2022-12-24T09:43:14.969Z,98051.30
2022-12-24T09:46:28.257Z,98052.96
2022-12-24T09:49:42.044Z,98061.95
2022-12-24T09:52:49.740Z,98063.84
2022-12-24T09:56:00.464Z,98068.36
2022-12-24T09:59:08.340Z,98073.23
2022-12-24T10:02:18.576Z,98078.93
2022-12-24T10:05:35.696Z,98082.56
2022-12-24T10:08:57.780Z,98082.36
2022-12-24T10:12:12.222Z,98084.21
2022-12-24T10:15:25.785Z,98091.55
2022-12-24T10:18:44.315Z,98102.41
2022-12-24T10:22:09.392Z,98107.02
2022-12-24T10:25:22.380Z,98123.13
2022-12-24T10:28:35.764Z,98126.48
2022-12-24T10:31:47.638Z,98120.08
2022-12-24T10:34:59.654Z,98120.87
2022-12-24T10:38:06.191Z,98121.59
2022-12-24T10:41:13.128Z,98119.17
2022-12-24T10:44:24.768Z,98117.59
2022-12-24T10:47:32.967Z,98120.17
2022-12-24T10:50:44.381Z,98119.92
2022-12-24T10:53:53.291Z,98122.58
2022-12-24T10:57:02.541Z,98119.91
2022-12-24T11:00:20.175Z,98125.02
2022-12-24T11:03:31.343Z,98129.91
2022-12-24T11:06:55.799Z,98128.20
2022-12-24T11:10:03.526Z,98136.99
2022-12-24T11:13:40.168Z,98140.55
2022-12-24T11:16:53.537Z,98145.17
2022-12-24T11:20:02.629Z,98147.95
2022-12-24T11:23:17.739Z,98151.89
2022-12-24T11:26:27.633Z,98157.33
2022-12-24T11:29:33.906Z,98158.99
2022-12-24T11:32:40.071Z,98162.12
2022-12-24T11:35:47.847Z,98169.41
2022-12-24T11:38:58.145Z,98180.23
2022-12-24T11:42:04.899Z,98186.77
2022-12-24T11:45:22.785Z,98196.19
2022-12-24T11:48:35.065Z,98196.02
2022-12-24T11:51:58.926Z,98198.07
2022-12-24T11:55:20.079Z,98203.95
2022-12-24T11:58:34.063Z,98208.11
2022-12-24T12:01:47.887Z,98208.79
2022-12-24T12:04:57.369Z,98206.76
2022-12-24T12:08:15.402Z,98214.14
2022-12-24T12:11:22.349Z,98219.31
2022-12-24T12:14:34.092Z,98223.63
2022-12-24T12:17:45.691Z,98232.33
2022-12-24T12:20:54.333Z,98238.86
2022-12-24T12:24:05.096Z,98249.38
2022-12-24T12:27:20.655Z,98259.35
2022-12-24T12:30:27.633Z,98267.44
2022-12-24T12:33:39.127Z,98277.09
2022-12-24T12:36:48.466Z,98283.95
2022-12-24T12:39:55.297Z,98297.14
2022-12-24T12:43:14.338Z,98300.27
2022-12-24T12:46:30.309Z,98308.70
2022-12-24T12:49:44.496Z,98313.66
2022-12-24T12:53:04.744Z,98313.22
2022-12-24T12:56:23.995Z,98317.11
2022-12-24T12:59:36.606Z,98327.77
2022-12-24T13:03:01.501Z,98338.10
2022-12-24T13:06:32.479Z,98346.21
2022-12-24T13:09:56.723Z,98353.80
2022-12-24T13:13:26.806Z,98359.63
2022-12-24T13:17:04.937Z,98362.27
2022-12-24T13:20:22.998Z,98371.36
2022-12-24T13:23:29.632Z,98378.39
2022-12-24T13:26:35.993Z,98381.20
2022-12-24T13:29:56.996Z,98382.85
2022-12-24T13:33:03.909Z,98386.83
2022-12-24T13:36:14.217Z,98392.84
2022-12-24T13:39:23.309Z,98405.48
2022-12-24T13:42:53.228Z,98406.81
2022-12-24T13:45:59.275Z,98410.83
2022-12-24T13:49:18.828Z,98418.83
2022-12-24T13:52:31.435Z,98428.98
2022-12-24T13:55:37.815Z,98429.05
2022-12-24T13:58:46.690Z,98426.63
2022-12-24T14:01:53.326Z,98430.02
2022-12-24T14:05:21.848Z,98434.13
2022-12-24T14:08:36.683Z,98436.02
2022-12-24T14:12:27.841Z,98442.26
2022-12-24T14:16:04.366Z,98443.93
2022-12-24T14:19:17.379Z,98447.28
2022-12-24T14:22:34.429Z,98454.25
2022-12-24T14:25:42.887Z,98460.20
2022-12-24T14:28:55.676Z,98467.20
2022-12-24T14:32:04.410Z,98473.13
2022-12-24T14:35:17.871Z,98483.14
2022-12-24T14:38:25.196Z,98486.63
2022-12-24T14:41:44.093Z,98489.00
2022-12-24T14:45:00.971Z,98498.01
2022-12-24T14:48:14.932Z,98510.41
2022-12-24T14:51:29.203Z,98523.55
2022-12-24T14:54:41.636Z,98532.51
2022-12-24T14:57:47.883Z,98536.70
2022-12-24T15:00:53.048Z,98540.96
2022-12-24T15:04:15.654Z,98546.93
2022-12-24T15:07:22.639Z,98551.77
2022-12-24T15:10:32.853Z,98563.27
2022-12-24T15:13:41.460Z,98566.32
2022-12-24T15:16:55.976Z,98569.12
2022-12-24T15:20:02.311Z,98576.83
2022-12-24T15:23:19.363Z,98577.11
2022-12-24T15:26:28.452Z,98578.39
2022-12-24T15:29:40.887Z,98579.37
2022-12-24T15:32:47.343Z,98585.47
2022-12-24T15:35:57.047Z,98586.81
2022-12-24T15:39:06.503Z,98597.45
2022-12-24T15:42:18.853Z,98604.89
2022-12-24T15:45:28.865Z,98607.84
2022-12-24T15:48:36.631Z,98614.97
2022-12-24T15:51:42.615Z,98619.37
2022-12-24T15:54:57.226Z,98618.73
2022-12-24T15:58:03.929Z,98624.41
2022-12-24T16:01:29.461Z,98623.89
2022-12-24T16:04:35.607Z,98623.36
2022-12-24T16:08:06.514Z,98630.52
2022-12-24T16:11:24.095Z,98636.13
2022-12-24T16:14:30.949Z,98632.60
2022-12-24T16:17:37.921Z,98638.41
2022-12-24T16:20:50.116Z,98643.59
2022-12-24T16:23:58.833Z,98651.63
2022-12-24T16:27:12.210Z,98650.48
2022-12-24T16:30:19.357Z,98655.32
2022-12-24T16:33:25.663Z,98658.70
2022-12-24T16:36:30.332Z,98666.33
2022-12-24T16:39:37.596Z,98667.55
2022-12-24T16:43:01.155Z,98668.86
2022-12-24T16:46:09.134Z,98677.07
2022-12-24T16:49:20.096Z,98680.99
2022-12-24T16:52:29.103Z,98687.59
2022-12-24T16:55:35.164Z,98695.09
2022-12-24T16:58:41.396Z,98698.41
2022-12-24T17:01:46.453Z,98701.16
2022-12-24T17:04:52.723Z,98707.41
2022-12-24T17:07:57.196Z,98711.98
2022-12-24T17:11:01.772Z,98719.83
2022-12-24T17:14:08.735Z,98720.50
2022-12-24T17:17:20.365Z,98722.46
2022-12-24T17:20:24.910Z,98721.52
2022-12-24T17:23:29.692Z,98723.73
2022-12-24T17:26:34.358Z,98729.45
2022-12-24T17:29:39.003Z,98731.88
2022-12-24T17:32:43.665Z,98734.44
2022-12-24T17:35:49.410Z,98733.25
2022-12-24T17:38:54.119Z,98735.32
2022-12-24T17:41:58.787Z,98742.96
2022-12-24T17:45:03.301Z,98745.27
2022-12-24T17:48:08.151Z,98745.23
2022-12-24T17:51:13.982Z,98748.02
2022-12-24T17:54:18.636Z,98748.91
2022-12-24T17:57:23.167Z,98741.61
2022-12-24T18:00:32.744Z,98736.89
2022-12-24T18:03:37.852Z,98735.20
2022-12-24T18:06:47.413Z,98737.80
2022-12-24T18:09:53.760Z,98744.10
2022-12-24T18:12:58.300Z,98748.52
2022-12-24T18:16:03.175Z,98754.76
2022-12-24T18:19:10.292Z,98763.36
2022-12-24T18:22:14.842Z,98770.79
2022-12-24T18:25:20.276Z,98774.52
2022-12-24T18:28:24.792Z,98776.35
2022-12-24T18:31:29.957Z,98773.30
2022-12-24T18:34:34.564Z,98772.08
2022-12-24T18:37:39.177Z,98777.09
2022-12-24T18:40:43.680Z,98782.23
2022-12-24T18:43:48.268Z,98786.86
2022-12-24T18:46:52.776Z,98793.16
2022-12-24T18:49:57.343Z,98799.64
2022-12-24T18:53:01.904Z,98806.13
2022-12-24T18:56:07.866Z,98805.69
2022-12-24T18:59:12.503Z,98804.78
2022-12-24T19:02:17.173Z,98808.52
2022-12-24T19:05:21.980Z,98818.64
2022-12-24T19:11:51.022Z,98826.14
2022-12-24T19:14:55.511Z,98829.52
2022-12-24T19:18:00.130Z,98838.88
2022-12-24T19:21:08.973Z,98849.27
2022-12-24T19:24:14.551Z,98853.77
2022-12-24T19:27:19.052Z,98859.41
2022-12-24T19:30:23.519Z,98857.98
2022-12-24T19:33:28.055Z,98865.80
2022-12-24T19:36:33.992Z,98867.05
2022-12-24T19:39:38.572Z,98870.86
2022-12-24T19:42:43.781Z,98877.99
2022-12-24T19:45:48.369Z,98888.65
2022-12-24T19:48:54.053Z,98896.15
2022-12-24T19:51:58.584Z,98893.57
2022-12-24T19:55:03.128Z,98895.38
2022-12-24T19:58:07.646Z,98896.66
2022-12-24T20:01:15.675Z,98902.15
2022-12-24T20:04:21.752Z,98906.92
2022-12-24T20:07:26.464Z,98905.87
2022-12-24T20:10:31.013Z,98905.60
2022-12-24T20:13:35.560Z,98909.83
2022-12-24T20:16:40.229Z,98914.33
2022-12-24T20:19:44.868Z,98921.60
2022-12-24T20:22:49.360Z,98925.55
2022-12-24T20:25:57.356Z,98923.11
2022-12-24T20:29:03.870Z,98928.13
2022-12-24T20:32:08.660Z,98935.17
2022-12-24T20:35:13.586Z,98932.41
2022-12-24T20:38:18.148Z,98933.84
2022-12-24T20:41:24.275Z,98933.61
2022-12-24T20:44:28.980Z,98934.73
2022-12-24T20:47:33.697Z,98936.17
2022-12-24T20:50:41.501Z,98941.05
2022-12-24T20:53:46.323Z,98939.67
2022-12-24T20:56:57.564Z,98936.55
2022-12-24T21:00:03.492Z,98937.97
2022-12-24T21:03:08.024Z,98939.61
2022-12-24T21:06:12.759Z,98945.28
2022-12-24T21:09:17.273Z,98945.34
2022-12-24T21:12:39.293Z,98949.06
2022-12-24T21:15:45.904Z,98947.64
2022-12-24T21:18:50.805Z,98951.60
2022-12-24T21:21:55.278Z,98950.30
2022-12-24T21:24:59.876Z,98950.20
2022-12-24T21:28:04.557Z,98949.35
2022-12-24T21:31:11.645Z,98955.08
2022-12-24T21:34:16.249Z,98957.90
2022-12-24T21:37:20.839Z,98957.45
2022-12-24T21:40:25.306Z,98955.15
2022-12-24T21:43:31.421Z,98947.69
2022-12-24T21:46:36.121Z,98947.79
2022-12-24T21:49:58.273Z,98946.98
2022-12-24T21:53:16.509Z,98962.17
2022-12-24T21:56:21.405Z,98972.33
2022-12-24T21:59:27.341Z,98974.41
2022-12-24T22:02:32.192Z,98972.08
2022-12-24T22:05:36.870Z,98970.78
2022-12-24T22:08:59.109Z,98969.70
2022-12-24T22:12:03.594Z,98979.37
2022-12-24T22:15:09.382Z,98985.36
2022-12-24T22:18:15.955Z,98976.01
2022-12-24T22:21:20.687Z,98966.11
2022-12-24T22:24:25.797Z,98970.41
2022-12-24T22:27:30.218Z,98973.39
2022-12-24T22:30:37.456Z,98984.80
2022-12-24T22:33:41.985Z,98990.31
2022-12-24T22:36:46.615Z,98988.79
2022-12-24T22:39:51.248Z,98990.54
2022-12-24T22:42:55.860Z,98997.40
2022-12-24T22:46:00.467Z,99007.92
2022-12-24T22:49:05.124Z,99007.81
2022-12-24T22:52:09.587Z,99005.67
2022-12-24T22:55:14.165Z,99005.35
2022-12-24T22:58:18.793Z,99005.42
2022-12-24T23:01:32.085Z,99010.66
2022-12-24T23:04:37.641Z,99008.36
2022-12-24T23:07:42.197Z,99010.80
2022-12-24T23:10:46.736Z,99015.05
2022-12-24T23:14:08.290Z,99019.20
2022-12-24T23:17:12.787Z,99016.33
2022-12-24T23:20:17.392Z,99013.39
2022-12-24T23:23:22.019Z,99013.67
2022-12-24T23:26:26.739Z,99014.81
2022-12-24T23:29:31.606Z,99011.10
2022-12-24T23:32:36.090Z,99011.23
2022-12-24T23:35:40.676Z,99019.64
2022-12-24T23:38:45.229Z,99015.79
2022-12-24T23:41:49.773Z,99017.11
2022-12-24T23:44:54.304Z,99019.09
2022-12-24T23:47:58.811Z,99020.67
2022-12-24T23:51:07.296Z,99029.27
2022-12-24T23:54:11.981Z,99033.70
2022-12-24T23:57:16.622Z,99037.95
